Terminal Aerodrome Forecast
Issued by NWS

Home | Current Version | Previous Version | Text Only | Print | Product List | Glossary On
Versions: 1 2 3 4 5 6 7 8 9 10 11 12
276
FTUS45 KVEF 151720
TAFDAG
TAF
KDAG 151720Z 1518/1618 VRB06KT P6SM SCT250
     FM152000 08007KT P6SM BKN200
     FM160300 25010KT P6SM BKN200
     FM161500 29007KT P6SM BKN250=

USA.gov is the U.S. government's official web portal to all federal, state and local government web resources and services.